Time;durP1;ratioP1;P1;durP2;ratioP2;P2;SDS_P1;SDS_P2;PMS_P1;PMS_P2;Temp;Humidity;BMP_temperature;BMP_pressure;BME280_temperature;BME280_humidity;BME280_pressure;Samples;Min_cycle;Max_cycle;Signal;HPM_P1;HPM_P2
2023/03/05 00:01:41;;;;;;;21.48;2.88;;;4.60;99.90;;;;;;5034919;28;20021;-76
2023/03/05 00:04:11;;;;;;;18.45;3.15;;;4.60;99.90;;;;;;5035863;28;20016;-75
2023/03/05 00:06:37;;;;;;;11.80;2.63;;;4.50;99.90;;;;;;5025053;28;20037;-75
2023/03/05 00:09:04;;;;;;;14.90;2.88;;;4.50;99.90;;;;;;5031889;28;20419;-75
2023/03/05 00:11:30;;;;;;;17.15;2.55;;;4.50;99.90;;;;;;5020739;28;20032;-75
2023/03/05 00:13:57;;;;;;;10.80;3.05;;;4.50;99.90;;;;;;5034141;28;20383;-76
2023/03/05 00:16:25;;;;;;;14.73;2.38;;;4.50;99.90;;;;;;5036090;28;20017;-75
2023/03/05 00:18:51;;;;;;;11.88;2.30;;;4.50;99.90;;;;;;5031439;28;20414;-75
2023/03/05 00:21:18;;;;;;;13.30;2.25;;;4.50;99.90;;;;;;5026441;28;20108;-75
2023/03/05 00:23:44;;;;;;;13.80;2.10;;;4.50;99.90;;;;;;5034917;28;20052;-75
2023/03/05 00:26:10;;;;;;;12.13;2.08;;;4.50;99.90;;;;;;5026033;28;20045;-75
2023/03/05 00:28:35;;;;;;;9.65;1.92;;;4.50;99.90;;;;;;5029603;28;20026;-75
2023/03/05 00:31:01;;;;;;;14.52;2.17;;;4.40;99.90;;;;;;5022352;28;20059;-75
2023/03/05 00:33:27;;;;;;;12.55;2.72;;;4.40;99.90;;;;;;5034778;28;20087;-75
2023/03/05 00:35:53;;;;;;;12.45;1.45;;;4.40;99.90;;;;;;5029602;28;20022;-75
2023/03/05 00:38:19;;;;;;;14.40;2.00;;;4.40;99.90;;;;;;5025717;28;20025;-75
2023/03/05 00:40:44;;;;;;;11.38;1.98;;;4.40;99.90;;;;;;5034796;28;20026;-75
2023/03/05 00:43:10;;;;;;;15.52;2.25;;;4.40;99.90;;;;;;5026240;28;20462;-75
2023/03/05 00:45:36;;;;;;;10.88;1.95;;;4.40;99.90;;;;;;5028383;28;20076;-75
2023/03/05 00:48:03;;;;;;;9.85;2.40;;;4.40;99.90;;;;;;5021558;28;20044;-75
2023/03/05 00:50:28;;;;;;;10.73;1.95;;;4.40;99.90;;;;;;5034692;28;20018;-75
2023/03/05 00:52:54;;;;;;;10.65;2.15;;;4.40;99.90;;;;;;5020170;28;20108;-75
2023/03/05 00:55:20;;;;;;;10.63;2.00;;;4.40;99.90;;;;;;5034111;28;20030;-75
2023/03/05 00:57:46;;;;;;;11.13;2.15;;;4.40;99.90;;;;;;5020163;28;20410;-75
2023/03/05 01:00:13;;;;;;;12.25;2.22;;;4.40;99.90;;;;;;5025030;28;20054;-75
2023/03/05 01:02:38;;;;;;;6.00;1.50;;;4.40;99.90;;;;;;5015914;28;20026;-75
2023/03/05 01:05:04;;;;;;;12.65;2.13;;;4.40;99.90;;;;;;5027392;28;20057;-75
2023/03/05 01:07:30;;;;;;;9.65;1.77;;;4.40;99.90;;;;;;4996285;28;20029;-75
2023/03/05 01:09:56;;;;;;;10.15;1.60;;;4.40;99.90;;;;;;5018071;28;20021;-75
2023/03/05 01:12:21;;;;;;;11.02;2.13;;;4.50;99.90;;;;;;5004459;28;20503;-75
2023/03/05 01:14:47;;;;;;;6.38;1.60;;;4.50;99.90;;;;;;5034022;28;20109;-75
2023/03/05 01:17:13;;;;;;;8.30;1.55;;;4.50;99.90;;;;;;5033718;28;20021;-75
2023/03/05 01:19:38;;;;;;;9.55;1.80;;;4.50;99.90;;;;;;5016290;28;20079;-75
2023/03/05 01:22:04;;;;;;;5.88;1.85;;;4.50;99.90;;;;;;5030925;28;20029;-75
2023/03/05 01:24:30;;;;;;;13.98;2.08;;;4.50;99.90;;;;;;5033618;28;20380;-75
2023/03/05 01:26:56;;;;;;;13.80;2.15;;;4.50;99.90;;;;;;5033212;28;20087;-75
2023/03/05 01:29:22;;;;;;;10.75;1.95;;;4.50;99.90;;;;;;5026052;28;20026;-75
2023/03/05 01:31:48;;;;;;;7.80;1.70;;;4.50;99.90;;;;;;5027572;28;20048;-75
2023/03/05 01:34:13;;;;;;;9.88;1.73;;;4.60;99.90;;;;;;5031391;28;20042;-75
2023/03/05 01:36:42;;;;;;;6.18;1.90;;;4.50;99.90;;;;;;5034020;28;20017;-75
2023/03/05 01:39:08;;;;;;;7.70;2.10;;;4.60;99.90;;;;;;5030133;28;20030;-75
2023/03/05 01:41:34;;;;;;;12.30;1.90;;;4.60;99.90;;;;;;5028016;28;20372;-75
2023/03/05 01:43:59;;;;;;;10.52;2.10;;;4.50;99.90;;;;;;5013519;28;20520;-75
2023/03/05 01:46:28;;;;;;;7.15;1.70;;;4.60;99.90;;;;;;5013667;28;20100;-75
2023/03/05 01:49:06;;;;;;;5.45;1.70;;;4.60;99.90;;;;;;5015654;28;20369;-74
2023/03/05 01:51:38;;;;;;;6.72;1.73;;;4.60;99.90;;;;;;5015440;28;20075;-74
2023/03/05 01:54:06;;;;;;;8.68;1.80;;;4.60;99.90;;;;;;5029732;28;20635;-75
2023/03/05 01:56:32;;;;;;;7.60;1.80;;;4.60;99.90;;;;;;5021933;28;20084;-74
2023/03/05 01:59:02;;;;;;;10.65;1.60;;;4.60;99.90;;;;;;5017811;28;20109;-74
2023/03/05 02:01:31;;;;;;;8.48;1.65;;;4.60;99.90;;;;;;5013301;28;20029;-74
2023/03/05 02:03:57;;;;;;;9.68;2.08;;;4.60;99.90;;;;;;5028213;28;20084;-74
2023/03/05 02:06:23;;;;;;;7.88;1.73;;;4.60;99.90;;;;;;5027374;28;20127;-74
2023/03/05 02:08:49;;;;;;;8.05;1.60;;;4.60;99.90;;;;;;5025695;28;20476;-74
2023/03/05 02:11:14;;;;;;;11.32;1.90;;;4.60;99.90;;;;;;5018133;28;20097;-74
2023/03/05 02:13:40;;;;;;;8.05;1.70;;;4.50;99.90;;;;;;5022888;28;20061;-74
2023/03/05 02:16:06;;;;;;;8.57;1.80;;;4.50;99.90;;;;;;5018555;28;20026;-74
2023/03/05 02:18:32;;;;;;;8.52;2.08;;;4.50;99.90;;;;;;5026199;28;20246;-75
2023/03/05 02:21:04;;;;;;;12.73;1.90;;;4.50;99.90;;;;;;5024695;28;20088;-74
2023/03/05 02:23:35;;;;;;;11.75;2.28;;;4.40;99.90;;;;;;5027568;28;20022;-75
2023/03/05 02:26:02;;;;;;;10.52;2.03;;;4.40;99.90;;;;;;5025741;28;20041;-74
2023/03/05 02:28:40;;;;;;;7.15;1.73;;;4.30;99.90;;;;;;5012780;28;20064;-74
2023/03/05 02:31:25;;;;;;;8.77;2.08;;;4.30;99.90;;;;;;5018660;28;20021;-75
2023/03/05 02:33:52;;;;;;;9.88;2.38;;;4.30;99.90;;;;;;5032193;28;20034;-75
2023/03/05 02:36:18;;;;;;;8.48;2.05;;;4.30;99.90;;;;;;5020595;28;20033;-75
2023/03/05 02:38:45;;;;;;;10.77;2.38;;;4.20;99.90;;;;;;5013989;28;20046;-73
2023/03/05 02:41:11;;;;;;;8.52;2.10;;;4.20;99.90;;;;;;5032460;28;20104;-75
2023/03/05 02:43:37;;;;;;;11.65;1.98;;;4.30;99.90;;;;;;5026695;28;20529;-75
2023/03/05 02:46:03;;;;;;;11.15;2.33;;;4.30;99.90;;;;;;5022022;28;20057;-74
2023/03/05 02:48:29;;;;;;;10.82;1.83;;;4.30;99.90;;;;;;5021648;28;20028;-74
2023/03/05 02:50:55;;;;;;;13.07;2.20;;;4.30;99.90;;;;;;5031821;28;20021;-74
2023/03/05 02:53:22;;;;;;;5.25;1.60;;;4.30;99.90;;;;;;5032050;28;20029;-75
2023/03/05 02:55:49;;;;;;;9.38;1.88;;;4.30;99.90;;;;;;5024379;28;20018;-75
2023/03/05 02:58:15;;;;;;;9.27;1.50;;;4.40;99.90;;;;;;5027420;28;20021;-74
2023/03/05 03:00:41;;;;;;;9.77;1.55;;;4.40;99.90;;;;;;5013187;28;20029;-74
2023/03/05 03:03:07;;;;;;;10.10;1.63;;;4.30;99.90;;;;;;5025804;28;20029;-75
2023/03/05 03:05:34;;;;;;;12.35;2.05;;;4.40;99.90;;;;;;5031657;28;20085;-74
2023/03/05 03:08:00;;;;;;;10.07;1.48;;;4.40;99.90;;;;;;5031750;28;20026;-75
2023/03/05 03:10:26;;;;;;;6.90;1.90;;;4.30;99.90;;;;;;5019697;28;20053;-75
2023/03/05 03:12:51;;;;;;;5.90;1.40;;;4.40;99.90;;;;;;5033516;28;20034;-75
2023/03/05 03:15:17;;;;;;;8.60;1.50;;;4.40;99.90;;;;;;5032656;28;20045;-75
2023/03/05 03:17:43;;;;;;;8.60;1.63;;;4.40;99.90;;;;;;5026165;28;20025;-75
2023/03/05 03:20:12;;;;;;;7.43;1.55;;;4.40;99.90;;;;;;5025333;28;20026;-75
2023/03/05 03:22:39;;;;;;;10.05;1.55;;;4.40;99.90;;;;;;5019988;28;20025;-75
2023/03/05 03:25:06;;;;;;;10.30;1.80;;;4.40;99.90;;;;;;5031702;28;20044;-75
2023/03/05 03:27:31;;;;;;;10.52;1.77;;;4.40;99.90;;;;;;5018513;28;20512;-76
2023/03/05 03:30:01;;;;;;;10.65;1.83;;;4.40;99.90;;;;;;5027835;28;20026;-75
2023/03/05 03:32:27;;;;;;;6.18;1.55;;;4.40;99.90;;;;;;5024351;28;20036;-74
2023/03/05 03:34:53;;;;;;;9.60;1.70;;;4.40;99.90;;;;;;5029301;28;20634;-74
2023/03/05 03:37:19;;;;;;;7.38;1.17;;;4.40;99.90;;;;;;5016617;28;20042;-75
2023/03/05 03:39:44;;;;;;;8.35;1.30;;;4.50;99.90;;;;;;5020961;28;20029;-74
2023/03/05 03:42:10;;;;;;;6.97;1.40;;;4.40;99.90;;;;;;5032188;28;20041;-75
2023/03/05 03:44:35;;;;;;;6.07;1.10;;;4.50;99.90;;;;;;5021625;28;20029;-75
2023/03/05 03:47:01;;;;;;;4.60;0.90;;;4.50;99.90;;;;;;5016526;28;20068;-76
2023/03/05 03:49:27;;;;;;;4.60;0.90;;;4.50;99.90;;;;;;5032548;28;20056;-75
2023/03/05 03:51:54;;;;;;;8.70;0.90;;;4.50;99.90;;;;;;5017436;28;20564;-75
2023/03/05 03:54:20;;;;;;;4.15;1.00;;;4.50;99.90;;;;;;5019959;28;20113;-75
2023/03/05 03:56:46;;;;;;;5.18;0.88;;;4.50;99.90;;;;;;5022317;28;20037;-75
2023/03/05 03:59:12;;;;;;;4.32;0.70;;;4.60;99.90;;;;;;5020649;28;20017;-75
2023/03/05 04:01:38;;;;;;;3.35;0.75;;;4.50;99.90;;;;;;5024007;28;20029;-75
2023/03/05 04:04:04;;;;;;;3.83;0.70;;;4.50;99.90;;;;;;5033257;28;20022;-75
2023/03/05 04:06:31;;;;;;;2.53;0.70;;;4.60;99.90;;;;;;5025427;28;20021;-75
2023/03/05 04:08:57;;;;;;;5.47;1.00;;;4.50;99.90;;;;;;5024662;28;20033;-75
2023/03/05 04:11:22;;;;;;;8.43;1.13;;;4.60;99.90;;;;;;5017332;28;20424;-75
2023/03/05 04:13:48;;;;;;;4.15;0.68;;;4.60;99.90;;;;;;5026759;28;20025;-75
2023/03/05 04:16:15;;;;;;;2.80;0.63;;;4.50;99.90;;;;;;5021941;28;20029;-75
2023/03/05 04:18:41;;;;;;;3.83;0.70;;;4.60;99.90;;;;;;5033986;28;20036;-75
2023/03/05 04:21:08;;;;;;;3.33;0.80;;;4.60;99.90;;;;;;5034429;28;20100;-75
2023/03/05 04:23:33;;;;;;;14.27;1.02;;;4.60;99.90;;;;;;5022294;28;20025;-75
2023/03/05 04:25:59;;;;;;;2.78;0.77;;;4.50;99.90;;;;;;5024153;28;20473;-75
2023/03/05 04:28:25;;;;;;;2.60;0.57;;;4.50;99.90;;;;;;5024370;28;20021;-75
2023/03/05 04:30:50;;;;;;;7.55;1.15;;;4.50;99.90;;;;;;5025474;28;20018;-75
2023/03/05 04:33:16;;;;;;;2.83;0.77;;;4.50;99.90;;;;;;5034367;28;20102;-75
2023/03/05 04:35:42;;;;;;;4.15;0.80;;;4.50;99.90;;;;;;5024898;28;20049;-75
2023/03/05 04:38:08;;;;;;;4.05;0.68;;;4.50;99.90;;;;;;5021000;28;20033;-75
2023/03/05 04:40:34;;;;;;;1.75;0.60;;;4.50;99.90;;;;;;5036090;28;20064;-76
2023/03/05 04:43:00;;;;;;;3.88;0.73;;;4.40;99.90;;;;;;5019693;28;20025;-76
2023/03/05 04:45:25;;;;;;;6.15;1.10;;;4.40;99.90;;;;;;5020617;28;20067;-76
2023/03/05 04:47:51;;;;;;;5.03;0.77;;;4.30;99.90;;;;;;5034771;28;20129;-75
2023/03/05 04:50:17;;;;;;;3.72;0.80;;;4.30;99.90;;;;;;5018905;28;20022;-75
2023/03/05 04:52:44;;;;;;;7.32;0.90;;;4.30;99.90;;;;;;5018429;28;20400;-75
2023/03/05 04:55:12;;;;;;;3.50;0.80;;;4.20;99.90;;;;;;5028186;28;20048;-75
2023/03/05 04:57:37;;;;;;;3.72;0.82;;;4.20;99.90;;;;;;5020431;28;20077;-75
2023/03/05 05:00:12;;;;;;;6.82;1.00;;;4.20;99.90;;;;;;5016957;28;20053;-75
2023/03/05 05:02:39;;;;;;;;;;;4.10;99.90;;;;;;5035292;28;20026;-75
2023/03/05 05:05:05;;;;;;;5.82;1.00;;;4.10;99.90;;;;;;5030331;28;19944;-75
2023/03/05 05:07:31;;;;;;;6.93;1.00;;;4.10;99.90;;;;;;5033877;28;20029;-75
2023/03/05 05:09:57;;;;;;;6.25;1.10;;;4.00;99.90;;;;;;5033830;28;20021;-75
2023/03/05 05:12:23;;;;;;;3.63;1.08;;;4.00;99.90;;;;;;5014825;28;20108;-75
2023/03/05 05:14:48;;;;;;;5.70;0.95;;;4.00;99.90;;;;;;5006915;28;20022;-75
2023/03/05 05:17:14;;;;;;;5.55;1.25;;;4.00;99.90;;;;;;5021884;28;20075;-75
2023/03/05 05:19:40;;;;;;;6.60;1.30;;;4.00;99.90;;;;;;5029149;28;20032;-75
2023/03/05 05:22:05;;;;;;;6.05;1.23;;;4.00;99.90;;;;;;5025981;28;20033;-75
2023/03/05 05:24:31;;;;;;;4.88;1.10;;;3.90;99.90;;;;;;5030105;28;20114;-76
2023/03/05 05:26:56;;;;;;;3.15;1.00;;;3.90;99.90;;;;;;5033193;28;20029;-75
2023/03/05 05:29:22;;;;;;;2.83;1.20;;;3.90;99.90;;;;;;5033851;28;20045;-75
2023/03/05 05:31:48;;;;;;;4.15;1.30;;;3.80;99.90;;;;;;5021128;28;20033;-75
2023/03/05 05:34:15;;;;;;;3.55;1.17;;;3.80;99.90;;;;;;5033160;28;20025;-75
2023/03/05 05:36:40;;;;;;;7.80;1.58;;;3.80;99.90;;;;;;5029416;28;20026;-75
2023/03/05 05:39:06;;;;;;;4.18;1.58;;;3.80;99.90;;;;;;5007354;28;20477;-76
2023/03/05 05:41:31;;;;;;;4.85;1.65;;;3.80;99.90;;;;;;5011189;28;20026;-76
2023/03/05 05:43:57;;;;;;;3.55;0.90;;;3.80;99.90;;;;;;5020300;28;20020;-75
2023/03/05 05:46:23;;;;;;;3.30;1.20;;;3.80;99.90;;;;;;5034006;28;20049;-75
2023/03/05 05:48:49;;;;;;;3.58;0.90;;;3.70;99.90;;;;;;5029380;28;20022;-74
2023/03/05 05:51:20;;;;;;;6.50;1.30;;;3.70;99.90;;;;;;5013917;28;20056;-74
2023/03/05 05:53:46;;;;;;;6.82;1.38;;;3.70;99.90;;;;;;5013973;28;20033;-75
2023/03/05 05:56:12;;;;;;;5.40;1.27;;;3.70;99.90;;;;;;5022728;28;20040;-75
2023/03/05 05:58:40;;;;;;;6.97;1.30;;;3.80;99.90;;;;;;5033599;28;20028;-75
2023/03/05 06:01:25;;;;;;;7.28;1.27;;;3.80;99.90;;;;;;5026192;28;20026;-74
2023/03/05 06:03:51;;;;;;;;;;;3.80;99.90;;;;;;5012637;28;20397;-75
2023/03/05 06:06:20;;;;;;;5.78;1.30;;;3.80;99.90;;;;;;5021013;28;19909;-74
2023/03/05 06:08:46;;;;;;;7.88;1.20;;;3.80;99.90;;;;;;5020300;28;20030;-74
2023/03/05 06:11:12;;;;;;;4.80;1.20;;;3.90;99.90;;;;;;5009978;28;20034;-74
2023/03/05 06:13:38;;;;;;;6.88;1.48;;;3.90;99.90;;;;;;5014047;28;20056;-74
2023/03/05 06:16:07;;;;;;;5.22;1.50;;;3.80;99.90;;;;;;5017439;28;20013;-75
2023/03/05 06:18:34;;;;;;;6.63;1.38;;;3.90;99.90;;;;;;5032731;28;20220;-75
2023/03/05 06:21:02;;;;;;;8.13;1.50;;;3.90;99.90;;;;;;5016788;28;20377;-75
2023/03/05 06:23:28;;;;;;;5.30;1.58;;;3.90;99.90;;;;;;5012685;28;20022;-76
2023/03/05 06:25:57;;;;;;;7.32;1.23;;;4.00;99.90;;;;;;5027378;28;20543;-75
2023/03/05 06:28:23;;;;;;;6.13;1.30;;;4.00;99.90;;;;;;5019307;28;20033;-75
2023/03/05 06:30:48;;;;;;;5.22;1.20;;;4.00;99.90;;;;;;5032974;28;20029;-75
2023/03/05 06:33:14;;;;;;;5.20;0.90;;;4.00;99.90;;;;;;5032807;28;20400;-76
2023/03/05 06:35:40;;;;;;;7.43;1.05;;;4.00;99.90;;;;;;5033280;28;20025;-75
2023/03/05 06:38:07;;;;;;;2.70;0.90;;;4.00;99.90;;;;;;5018979;28;20108;-75
2023/03/05 06:40:32;;;;;;;4.03;0.90;;;4.10;99.90;;;;;;5024357;28;20029;-75
2023/03/05 06:42:58;;;;;;;6.40;1.05;;;4.10;99.90;;;;;;5032591;28;20025;-75
2023/03/05 06:45:24;;;;;;;3.88;1.05;;;4.10;99.90;;;;;;5018572;28;20070;-75
2023/03/05 06:47:49;;;;;;;6.47;1.40;;;4.10;99.90;;;;;;5023915;28;20313;-76
2023/03/05 06:50:15;;;;;;;6.95;1.55;;;4.10;99.90;;;;;;5028725;28;20047;-75
2023/03/05 06:52:40;;;;;;;3.38;1.05;;;4.10;99.90;;;;;;5007795;28;20032;-76
2023/03/05 06:55:07;;;;;;;5.50;1.17;;;4.10;99.90;;;;;;5019119;28;20017;-76
2023/03/05 06:57:33;;;;;;;4.00;1.05;;;4.10;99.90;;;;;;5026707;28;20034;-75
2023/03/05 06:59:58;;;;;;;3.67;1.08;;;4.20;99.90;;;;;;5026543;28;20014;-74
2023/03/05 07:02:25;;;;;;;2.67;0.90;;;4.20;99.90;;;;;;5024667;28;20076;-75
2023/03/05 07:04:50;;;;;;;5.95;1.13;;;4.20;99.90;;;;;;5024629;28;20030;-75
2023/03/05 07:07:17;;;;;;;4.20;1.10;;;4.20;99.90;;;;;;5024362;28;20024;-75
2023/03/05 07:09:44;;;;;;;3.05;0.80;;;4.20;99.90;;;;;;5019181;28;20056;-75
2023/03/05 07:12:10;;;;;;;2.63;0.95;;;4.30;99.90;;;;;;5013235;28;20061;-75
2023/03/05 07:14:37;;;;;;;4.18;1.10;;;4.30;99.90;;;;;;5019017;28;20025;-75
2023/03/05 07:17:05;;;;;;;4.82;1.30;;;4.30;99.90;;;;;;5020618;28;20022;-76
2023/03/05 07:19:30;;;;;;;1.60;0.70;;;4.30;99.90;;;;;;5023956;28;20026;-74
2023/03/05 07:21:56;;;;;;;6.00;1.30;;;4.40;99.90;;;;;;5025275;28;20012;-74
2023/03/05 07:24:26;;;;;;;3.25;1.08;;;4.40;99.90;;;;;;5027578;28;20121;-75
2023/03/05 07:26:51;;;;;;;3.00;1.30;;;4.40;99.90;;;;;;5028501;28;20499;-75
2023/03/05 07:29:17;;;;;;;6.35;1.25;;;4.40;99.90;;;;;;5021618;28;20117;-75
2023/03/05 07:31:42;;;;;;;4.82;1.30;;;4.40;99.90;;;;;;5026667;28;20026;-75
2023/03/05 07:34:09;;;;;;;2.88;0.95;;;4.50;99.90;;;;;;5026121;28;20041;-75
2023/03/05 07:36:34;;;;;;;5.30;0.98;;;4.50;99.90;;;;;;5032861;28;20021;-74
2023/03/05 07:39:00;;;;;;;3.75;0.80;;;4.50;99.90;;;;;;5027131;28;20032;-75
2023/03/05 07:41:26;;;;;;;1.58;0.70;;;4.40;99.90;;;;;;5035632;28;20048;-75
2023/03/05 07:43:53;;;;;;;3.10;0.73;;;4.50;99.90;;;;;;5029451;28;20523;-74
2023/03/05 07:46:22;;;;;;;4.05;0.82;;;4.50;99.90;;;;;;5027390;28;20133;-75
2023/03/05 07:48:48;;;;;;;2.78;0.80;;;4.50;99.90;;;;;;5034909;28;20048;-75
2023/03/05 07:51:16;;;;;;;3.30;0.77;;;4.50;99.90;;;;;;5035339;28;20026;-75
2023/03/05 07:53:43;;;;;;;3.28;0.80;;;4.50;99.90;;;;;;5027555;28;20414;-75
2023/03/05 07:56:09;;;;;;;2.00;0.60;;;4.50;99.90;;;;;;5034942;28;20018;-75
2023/03/05 07:58:36;;;;;;;5.25;0.80;;;4.60;99.90;;;;;;5030303;28;20052;-74
2023/03/05 08:01:02;;;;;;;5.22;0.70;;;4.60;99.90;;;;;;5034970;28;20026;-75
2023/03/05 08:03:28;;;;;;;3.65;0.77;;;4.60;99.90;;;;;;5021755;28;20024;-76
2023/03/05 08:05:53;;;;;;;3.58;0.70;;;4.60;99.90;;;;;;5024169;28;20022;-75
2023/03/05 08:08:19;;;;;;;2.63;0.70;;;4.70;99.90;;;;;;5018970;28;20009;-76
2023/03/05 08:10:44;;;;;;;3.63;0.60;;;4.80;99.90;;;;;;5017549;28;20072;-75
2023/03/05 08:13:10;;;;;;;3.40;0.70;;;4.80;99.90;;;;;;5016072;28;20513;-75
2023/03/05 08:15:36;;;;;;;4.70;1.80;;;4.90;99.90;;;;;;5028861;28;20036;-74
2023/03/05 08:18:02;;;;;;;1.42;0.80;;;5.00;99.90;;;;;;5012843;28;20487;-74
2023/03/05 08:20:28;;;;;;;4.78;0.55;;;5.10;99.90;;;;;;5016674;28;20018;-74
2023/03/05 08:22:54;;;;;;;2.65;0.68;;;5.10;99.90;;;;;;5020246;28;20092;-75
2023/03/05 08:25:19;;;;;;;3.42;0.60;;;5.20;99.90;;;;;;5034704;28;20077;-75
2023/03/05 08:27:46;;;;;;;2.70;0.70;;;5.30;99.90;;;;;;5020386;28;20108;-75
2023/03/05 08:30:15;;;;;;;4.72;0.70;;;5.30;99.90;;;;;;5020042;28;20036;-75
2023/03/05 08:32:41;;;;;;;3.53;0.70;;;5.40;99.90;;;;;;5029366;28;20025;-75
2023/03/05 08:35:08;;;;;;;2.95;0.80;;;5.40;99.90;;;;;;5035582;28;20030;-74
2023/03/05 08:37:34;;;;;;;3.33;0.73;;;5.50;99.90;;;;;;5019036;28;20026;-75
2023/03/05 08:40:00;;;;;;;7.07;1.55;;;5.60;99.90;;;;;;5032936;28;20021;-75
2023/03/05 08:42:26;;;;;;;3.35;0.90;;;5.60;99.90;;;;;;5035090;28;20499;-75
2023/03/05 08:44:51;;;;;;;3.95;0.90;;;5.60;99.90;;;;;;5021692;28;20030;-75
2023/03/05 08:47:19;;;;;;;3.95;0.95;;;5.60;99.90;;;;;;5019391;28;20431;-75
2023/03/05 08:49:45;;;;;;;7.03;1.42;;;5.70;99.90;;;;;;5023521;28;20026;-75
2023/03/05 08:52:11;;;;;;;6.95;1.40;;;5.70;99.90;;;;;;5010924;28;20034;-75
2023/03/05 08:54:38;;;;;;;4.85;1.00;;;5.70;99.90;;;;;;5019712;28;20025;-75
2023/03/05 08:57:03;;;;;;;3.03;0.90;;;5.80;99.90;;;;;;5022990;28;20372;-74
2023/03/05 08:59:30;;;;;;;2.33;0.90;;;5.80;99.90;;;;;;5018207;28;20053;-75
2023/03/05 09:02:00;;;;;;;4.47;0.70;;;5.80;99.90;;;;;;5007923;28;20025;-74
2023/03/05 09:04:25;;;;;;;4.82;0.80;;;5.70;99.90;;;;;;5027452;28;20065;-75
2023/03/05 09:06:51;;;;;;;2.20;0.60;;;5.70;99.90;;;;;;5020224;28;20049;-75
2023/03/05 09:09:19;;;;;;;3.22;1.00;;;5.60;99.90;;;;;;5016565;28;20055;-75
2023/03/05 09:11:45;;;;;;;3.35;0.68;;;5.40;99.90;;;;;;5025492;28;20013;-75
2023/03/05 09:14:10;;;;;;;3.60;0.80;;;5.20;99.90;;;;;;5019719;28;20033;-75
2023/03/05 09:16:39;;;;;;;6.53;0.80;;;5.20;99.90;;;;;;5016180;28;20039;-75
2023/03/05 09:19:07;;;;;;;3.67;0.90;;;5.10;99.90;;;;;;5019144;28;20035;-75
2023/03/05 09:21:33;;;;;;;3.50;0.90;;;5.10;99.90;;;;;;5019280;28;20120;-75
2023/03/05 09:23:59;;;;;;;2.80;0.60;;;5.10;99.90;;;;;;5020563;28;20033;-75
2023/03/05 09:26:25;;;;;;;3.30;0.90;;;5.00;99.90;;;;;;5023120;28;20217;-75
2023/03/05 09:28:51;;;;;;;3.63;0.70;;;5.00;99.90;;;;;;5021915;28;20017;-75
2023/03/05 09:31:17;;;;;;;1.38;0.65;;;5.00;99.90;;;;;;5022976;28;20036;-75
2023/03/05 09:33:43;;;;;;;2.53;0.75;;;5.00;99.90;;;;;;5020797;28;20590;-75
2023/03/05 09:36:23;;;;;;;1.55;0.80;;;4.90;99.90;;;;;;5024991;28;20018;-75
2023/03/05 09:38:50;;;;;;;5.00;1.27;;;5.00;99.90;;;;;;5020641;28;20026;-75
2023/03/05 09:41:21;;;;;;;4.63;0.73;;;5.00;99.90;;;;;;5027779;28;20041;-76
2023/03/05 09:43:57;;;;;;;3.58;1.00;;;5.10;99.90;;;;;;5031117;28;20026;-75
2023/03/05 09:46:43;;;;;;;5.65;1.00;;;5.20;99.90;;;;;;5007495;28;20506;-75
2023/03/05 09:49:41;;;;;;;5.03;1.00;;;5.20;99.90;;;;;;5040494;28;20033;-75
2023/03/05 09:52:18;;;;;;;3.33;1.00;;;5.30;99.90;;;;;;5038181;28;20025;-75
2023/03/05 09:54:51;;;;;;;4.43;1.00;;;5.40;99.90;;;;;;5042938;28;20052;-75
2023/03/05 09:57:24;;;;;;;2.20;1.03;;;5.50;99.90;;;;;;5041402;28;20120;-75
2023/03/05 10:00:00;;;;;;;6.55;1.10;;;5.60;99.90;;;;;;5045377;28;20183;-76
2023/03/05 10:02:33;;;;;;;3.78;1.13;;;5.60;99.90;;;;;;5044824;28;20053;-75
2023/03/05 10:05:19;;;;;;;5.95;1.38;;;5.60;99.90;;;;;;5039848;28;20021;-75
2023/03/05 10:07:56;;;;;;;7.95;1.40;;;5.70;99.90;;;;;;5038976;28;20025;-75
2023/03/05 10:10:31;;;;;;;1.90;0.95;;;5.70;99.90;;;;;;5039029;28;20025;-76
2023/03/05 10:13:00;;;;;;;2.40;0.80;;;5.70;99.90;;;;;;5041105;28;20061;-76
2023/03/05 10:15:40;;;;;;;1.85;0.85;;;5.80;99.90;;;;;;5047531;28;20057;-75
2023/03/05 10:18:32;;;;;;;3.08;0.80;;;5.80;99.90;;;;;;5047024;28;20720;-75
2023/03/05 10:21:08;;;;;;;3.53;0.90;;;5.90;99.90;;;;;;5039536;28;20041;-74
2023/03/05 10:24:08;;;;;;;2.38;0.80;;;6.00;99.90;;;;;;5045538;28;20048;-74
2023/03/05 10:27:07;;;;;;;4.78;1.10;;;6.10;99.90;;;;;;5035686;28;20028;-74
2023/03/05 10:29:48;;;;;;;5.60;0.82;;;6.20;99.90;;;;;;5003705;28;20045;-74
2023/03/05 10:32:39;;;;;;;7.78;0.82;;;6.30;99.90;;;;;;5039302;28;20714;-74
2023/03/05 10:35:39;;;;;;;6.90;0.90;;;6.30;99.90;;;;;;5035943;28;20082;-74
2023/03/05 10:38:26;;;;;;;3.95;0.70;;;6.50;99.90;;;;;;5041533;28;20027;-74
2023/03/05 10:40:54;;;;;;;3.92;0.80;;;6.60;99.90;;;;;;5034570;28;20074;-75
2023/03/05 10:43:27;;;;;;;3.08;0.85;;;6.60;99.90;;;;;;5039490;28;20029;-74
2023/03/05 10:45:55;;;;;;;5.38;0.70;;;6.70;99.90;;;;;;5031082;28;20064;-74
2023/03/05 10:49:15;;;;;;;1.60;0.70;;;6.80;99.90;;;;;;5017189;28;20072;-74
2023/03/05 10:52:16;;;;;;;2.75;0.77;;;6.90;99.90;;;;;;4944728;29;20581;-75
2023/03/05 10:54:42;;;;;;;2.55;0.70;;;7.00;99.90;;;;;;4931094;29;20402;-75
2023/03/05 10:57:23;;;;;;;3.35;0.63;;;7.00;99.90;;;;;;4944135;29;20488;-74
2023/03/05 10:59:53;;;;;;;2.30;0.60;;;7.10;99.90;;;;;;4943964;29;20479;-74
2023/03/05 11:02:21;;;;;;;4.20;0.80;;;7.20;99.90;;;;;;4944488;29;20063;-74
2023/03/05 11:04:47;;;;;;;6.32;0.70;;;7.30;99.90;;;;;;4946115;29;20023;-74
2023/03/05 11:07:16;;;;;;;3.90;1.00;;;7.40;99.90;;;;;;4932895;29;20036;-75
2023/03/05 11:10:00;;;;;;;3.75;0.90;;;7.50;99.90;;;;;;4949128;29;20019;-74
2023/03/05 11:12:27;;;;;;;1.10;0.50;;;7.50;99.90;;;;;;4947689;29;20088;-76
2023/03/05 11:15:08;;;;;;;1.27;0.45;;;7.60;99.90;;;;;;4952990;29;20046;-74
2023/03/05 11:17:47;;;;;;;2.78;0.60;;;7.80;99.90;;;;;;4952140;29;20102;-75
2023/03/05 11:20:28;;;;;;;5.50;0.70;;;7.80;99.90;;;;;;4947378;29;20039;-75
2023/03/05 11:23:14;;;;;;;3.15;0.85;;;7.90;99.90;;;;;;4949255;29;20042;-75
2023/03/05 11:25:54;;;;;;;2.50;0.60;;;7.90;99.90;;;;;;4991895;28;20112;-75
2023/03/05 11:28:28;;;;;;;1.83;0.50;;;7.80;99.90;;;;;;5020007;28;20029;-75
2023/03/05 11:30:54;;;;;;;3.28;0.65;;;7.70;99.90;;;;;;5025801;28;20030;-75
2023/03/05 11:33:22;;;;;;;4.38;0.60;;;7.80;99.90;;;;;;5020528;28;20980;-75
2023/03/05 11:35:49;;;;;;;1.98;0.80;;;7.80;99.90;;;;;;5019651;28;20025;-75
2023/03/05 11:38:25;;;;;;;2.90;0.60;;;7.80;99.90;;;;;;5018958;28;20045;-75
2023/03/05 11:40:54;;;;;;;1.88;0.60;;;7.80;99.90;;;;;;5016674;28;20022;-75
2023/03/05 11:43:22;;;;;;;3.50;0.70;;;7.80;99.90;;;;;;5021139;28;20056;-75
2023/03/05 11:45:52;;;;;;;3.17;0.57;;;7.90;99.90;;;;;;5017520;28;20121;-75
2023/03/05 11:48:19;;;;;;;2.72;0.80;;;7.90;99.90;;;;;;5001127;28;20022;-75
2023/03/05 11:50:51;;;;;;;4.28;0.70;;;7.90;99.90;;;;;;5021647;28;20037;-75
2023/03/05 11:53:27;;;;;;;3.72;0.60;;;7.90;99.90;;;;;;5026557;28;20073;-75
2023/03/05 11:56:13;;;;;;;5.68;1.02;;;8.00;99.90;;;;;;5021177;28;20025;-74
2023/03/05 11:58:56;;;;;;;;;;;8.00;99.90;;;;;;5002720;28;20718;-75
2023/03/05 12:01:24;;;;;;;2.67;0.80;;;8.00;99.90;;;;;;5019786;28;19905;-75
2023/03/05 12:03:51;;;;;;;2.17;0.60;;;8.00;99.90;;;;;;5021837;28;20025;-75
2023/03/05 12:06:28;;;;;;;2.55;0.57;;;8.00;99.90;;;;;;5021009;28;20013;-74
2023/03/05 12:08:59;;;;;;;4.95;1.20;;;8.00;99.90;;;;;;4998317;28;20124;-75
2023/03/05 12:11:27;;;;;;;5.90;0.90;;;8.00;99.90;;;;;;5022946;28;20520;-75
2023/03/05 12:14:02;;;;;;;31.80;2.58;;;7.90;99.90;;;;;;5015879;28;20392;-75
2023/03/05 12:16:33;;;;;;;5.65;0.75;;;7.90;99.90;;;;;;5021615;28;20589;-75
2023/03/05 12:19:44;;;;;;;38.40;2.70;;;8.00;99.90;;;;;;5020370;28;20377;-74
2023/03/05 12:22:35;;;;;;;11.98;0.73;;;8.10;99.90;;;;;;4963787;28;20027;-74
2023/03/05 12:25:25;;;;;;;202.32;9.25;;;8.10;99.90;;;;;;4972944;28;20073;-73
2023/03/05 12:27:51;;;;;;;3.47;0.90;;;8.20;99.90;;;;;;4972373;28;20401;-73
2023/03/05 12:30:40;;;;;;;26.75;1.50;;;8.20;99.90;;;;;;4973439;28;20106;-72
2023/03/05 12:33:36;;;;;;;4.57;0.80;;;8.20;99.90;;;;;;4959394;28;20051;-73
2023/03/05 12:36:20;;;;;;;2.85;0.60;;;8.30;99.90;;;;;;4969326;28;20034;-75
2023/03/05 12:38:50;;;;;;;4.50;0.90;;;8.30;99.90;;;;;;4966851;28;20030;-75
2023/03/05 12:41:22;;;;;;;1.88;0.60;;;8.40;99.90;;;;;;4968203;28;20026;-75
2023/03/05 12:44:09;;;;;;;3.08;0.70;;;8.50;99.90;;;;;;4976772;28;20027;-75
2023/03/05 12:46:41;;;;;;;2.10;0.52;;;8.50;99.90;;;;;;4975385;28;20429;-75
2023/03/05 12:49:27;;;;;;;3.53;0.73;;;8.40;99.90;;;;;;4993592;28;20027;-75
2023/03/05 12:51:55;;;;;;;2.15;0.70;;;8.40;99.90;;;;;;5012134;28;20038;-74
2023/03/05 12:54:30;;;;;;;4.05;0.80;;;8.30;99.90;;;;;;5055280;28;20037;-75
2023/03/05 12:56:59;;;;;;;2.63;0.70;;;8.30;99.90;;;;;;5055150;28;20025;-73
2023/03/05 12:59:42;;;;;;;2.85;0.75;;;8.30;99.90;;;;;;5045463;28;20473;-74
2023/03/05 13:02:38;;;;;;;2.50;0.80;;;8.40;99.90;;;;;;5035690;28;20028;-74
2023/03/05 13:05:37;;;;;;;4.28;0.70;;;8.30;99.90;;;;;;5037982;28;20034;-75
2023/03/05 13:08:30;;;;;;;1.55;0.80;;;8.30;99.90;;;;;;5047994;28;20025;-74